Time;durP1;ratioP1;P1;durP2;ratioP2;P2;SDS_P1;SDS_P2;PMS_P1;PMS_P2;Temp;Humidity;BMP_temperature;BMP_pressure;BME280_temperature;BME280_humidity;BME280_pressure;Samples;Min_cycle;Max_cycle;Signal;HPM_P1;HPM_P2
2021/04/12 00:02:33;;;;;;;12.93;10.38;;;5.20;99.90;;;;;;6247043;28;20388;-77
2021/04/12 00:05:41;;;;;;;16.02;11.20;;;5.20;99.90;;;;;;6251427;28;20072;-77
2021/04/12 00:09:01;;;;;;;17.83;12.07;;;5.20;99.90;;;;;;6268984;28;20073;-77
2021/04/12 00:12:09;;;;;;;15.85;12.38;;;5.20;99.90;;;;;;6271351;28;20137;-78
2021/04/12 00:15:16;;;;;;;;;;;5.20;99.90;;;;;;6272188;28;20048;-77
2021/04/12 00:18:26;;;;;;;14.77;10.65;;;5.20;99.90;;;;;;6271207;28;20000;-78
2021/04/12 00:21:33;;;;;;;12.25;10.95;;;5.20;99.90;;;;;;6268251;28;20052;-78
2021/04/12 00:24:41;;;;;;;15.02;12.07;;;5.10;99.90;;;;;;6271412;28;20136;-77
2021/04/12 00:27:49;;;;;;;14.20;11.63;;;5.10;99.90;;;;;;6271481;28;20060;-77
2021/04/12 00:30:57;;;;;;;15.10;9.73;;;5.10;99.90;;;;;;6271720;28;20406;-78
2021/04/12 00:34:03;;;;;;;14.57;10.73;;;5.10;99.90;;;;;;6271521;28;20524;-77
2021/04/12 00:37:09;;;;;;;18.33;11.77;;;5.10;99.90;;;;;;6271055;28;20580;-76
2021/04/12 00:40:33;;;;;;;14.85;11.70;;;5.00;99.90;;;;;;6271408;28;20128;-77
2021/04/12 00:43:49;;;;;;;19.95;12.00;;;5.00;99.90;;;;;;6271080;28;20045;-77
2021/04/12 00:47:08;;;;;;;13.50;9.68;;;5.00;99.90;;;;;;6271986;28;20128;-77
2021/04/12 00:50:36;;;;;;;14.15;10.73;;;4.90;99.90;;;;;;6270830;28;20124;-77
2021/04/12 00:53:52;;;;;;;13.18;10.05;;;5.00;99.90;;;;;;6270566;28;20040;-77
2021/04/12 00:57:01;;;;;;;14.52;10.50;;;5.00;99.90;;;;;;6270986;28;20055;-77
2021/04/12 01:00:10;;;;;;;12.30;9.80;;;4.90;99.90;;;;;;6270904;28;20065;-78
2021/04/12 01:03:40;;;;;;;16.33;10.52;;;4.90;99.90;;;;;;6270441;28;20143;-77
2021/04/12 01:07:00;;;;;;;10.52;8.88;;;5.00;99.90;;;;;;6271046;28;20048;-76
2021/04/12 01:10:30;;;;;;;10.02;8.10;;;4.90;99.90;;;;;;6270547;28;20099;-77
2021/04/12 01:14:13;;;;;;;15.48;10.68;;;4.90;99.90;;;;;;6270491;28;20417;-77
2021/04/12 01:17:34;;;;;;;13.00;9.75;;;5.00;99.90;;;;;;6270630;28;20045;-77
2021/04/12 01:21:06;;;;;;;12.75;8.98;;;5.00;99.90;;;;;;6270784;28;20137;-77
2021/04/12 01:24:35;;;;;;;14.15;9.82;;;5.00;99.90;;;;;;6270425;28;20179;-77
2021/04/12 01:28:09;;;;;;;12.80;10.70;;;4.90;99.90;;;;;;6270744;28;20120;-78
2021/04/12 01:31:44;;;;;;;11.52;9.68;;;4.80;99.90;;;;;;6271075;28;20049;-77
2021/04/12 01:35:21;;;;;;;14.93;9.93;;;4.70;99.90;;;;;;6275051;28;20140;-77
2021/04/12 01:38:29;;;;;;;11.98;9.82;;;4.70;99.90;;;;;;6249426;28;20053;-77
2021/04/12 01:41:38;;;;;;;14.27;10.80;;;4.70;99.90;;;;;;6273848;28;20041;-77
2021/04/12 01:44:47;;;;;;;15.07;11.38;;;4.70;99.90;;;;;;6288534;28;20068;-76
2021/04/12 01:48:02;;;;;;;19.40;10.13;;;4.80;99.90;;;;;;6299709;28;20098;-76
2021/04/12 01:51:21;;;;;;;14.25;11.38;;;4.80;99.90;;;;;;6300023;28;20088;-77
2021/04/12 01:54:49;;;;;;;15.70;11.02;;;4.80;99.90;;;;;;6299849;28;20127;-75
2021/04/12 01:58:19;;;;;;;16.97;9.67;;;4.80;99.90;;;;;;6299159;28;20131;-76
2021/04/12 02:01:39;;;;;;;18.27;10.02;;;4.80;99.90;;;;;;6298978;28;20353;-76
2021/04/12 02:05:01;;;;;;;14.43;10.25;;;4.80;99.90;;;;;;6299080;28;20570;-77
2021/04/12 02:08:24;;;;;;;17.40;10.73;;;4.80;99.90;;;;;;6298946;28;20117;-76
2021/04/12 02:11:45;;;;;;;11.05;9.27;;;4.80;99.90;;;;;;6299166;28;20467;-77
2021/04/12 02:15:00;;;;;;;29.70;12.43;;;4.80;99.90;;;;;;6300387;28;20048;-77
2021/04/12 02:18:27;;;;;;;17.80;11.93;;;4.70;99.90;;;;;;6298963;28;20139;-77
2021/04/12 02:21:46;;;;;;;15.50;10.85;;;4.60;99.90;;;;;;6299240;28;20108;-76
2021/04/12 02:24:58;;;;;;;18.45;11.63;;;4.50;99.90;;;;;;6301388;28;20637;-77
2021/04/12 02:28:19;;;;;;;15.68;12.05;;;4.50;99.90;;;;;;6298703;28;20135;-78
2021/04/12 02:31:38;;;;;;;16.10;11.25;;;4.50;99.90;;;;;;6298989;28;20079;-77
2021/04/12 02:34:46;;;;;;;25.40;12.27;;;4.50;99.90;;;;;;6299851;28;20127;-77
2021/04/12 02:38:00;;;;;;;21.95;13.82;;;4.40;99.90;;;;;;6299464;28;20040;-77
2021/04/12 02:41:09;;;;;;;21.25;14.05;;;4.40;99.90;;;;;;6299281;28;20048;-77
2021/04/12 02:44:28;;;;;;;20.23;14.05;;;4.40;99.90;;;;;;6294001;28;20040;-77
2021/04/12 02:47:40;;;;;;;21.60;14.50;;;4.40;99.90;;;;;;6293322;28;20084;-77
2021/04/12 02:50:54;;;;;;;24.30;14.32;;;4.40;99.90;;;;;;6298873;28;20527;-77
2021/04/12 02:54:44;;;;;;;21.85;15.73;;;4.40;99.90;;;;;;6298567;28;20064;-77
2021/04/12 02:58:14;;;;;;;19.67;13.93;;;4.40;99.90;;;;;;6301577;28;20141;-77
2021/04/12 03:01:48;;;;;;;23.30;14.52;;;4.40;99.90;;;;;;6298848;28;20128;-77
2021/04/12 03:05:11;;;;;;;27.20;14.82;;;4.40;99.90;;;;;;6299631;28;20051;-77
2021/04/12 03:08:51;;;;;;;24.25;13.50;;;4.40;99.90;;;;;;6300695;28;20064;-78
2021/04/12 03:12:09;;;;;;;19.80;12.23;;;4.40;99.90;;;;;;6287077;28;20040;-78
2021/04/12 03:15:34;;;;;;;19.73;11.93;;;4.40;99.90;;;;;;6301214;28;20113;-78
2021/04/12 03:19:18;;;;;;;18.43;12.00;;;4.30;99.90;;;;;;6284301;28;20139;-78
2021/04/12 03:22:57;;;;;;;18.17;11.07;;;4.30;99.90;;;;;;6300673;28;20571;-78
2021/04/12 03:26:17;;;;;;;15.95;11.85;;;4.20;99.90;;;;;;6278910;28;20174;-77
2021/04/12 03:29:32;;;;;;;17.05;11.82;;;4.20;99.90;;;;;;6300529;28;20131;-78
2021/04/12 03:32:48;;;;;;;23.45;12.55;;;4.20;99.90;;;;;;6298122;28;20124;-76
2021/04/12 03:36:00;;;;;;;21.63;14.57;;;4.20;99.90;;;;;;6297574;28;20501;-76
2021/04/12 03:39:07;;;;;;;20.55;11.85;;;4.20;99.90;;;;;;6298563;28;20058;-77
2021/04/12 03:42:28;;;;;;;23.60;13.65;;;4.20;99.90;;;;;;6297739;28;20044;-76
2021/04/12 03:46:02;;;;;;;17.90;12.27;;;4.10;99.90;;;;;;6292801;28;20102;-77
2021/04/12 03:49:31;;;;;;;20.52;12.68;;;4.10;99.90;;;;;;6249637;28;20076;-78
2021/04/12 03:53:08;;;;;;;18.88;11.48;;;4.10;99.90;;;;;;6249349;28;20126;-77
2021/04/12 03:56:28;;;;;;;23.40;15.55;;;4.10;99.90;;;;;;6249588;28;20043;-78
2021/04/12 03:59:43;;;;;;;21.10;12.07;;;4.20;99.90;;;;;;6249893;28;20080;-78
2021/04/12 04:02:58;;;;;;;18.40;12.63;;;4.10;99.90;;;;;;6250290;28;20052;-78
2021/04/12 04:06:22;;;;;;;17.17;12.75;;;4.10;99.90;;;;;;6250254;28;20041;-79
2021/04/12 04:09:42;;;;;;;23.45;15.25;;;4.10;99.90;;;;;;6251451;28;20083;-78
2021/04/12 04:12:52;;;;;;;29.00;17.65;;;4.00;99.90;;;;;;6248328;28;20537;-78
2021/04/12 04:16:17;;;;;;;23.65;14.85;;;4.10;99.90;;;;;;6248650;28;20048;-78
2021/04/12 04:19:36;;;;;;;20.05;13.15;;;4.10;99.90;;;;;;6248644;28;20132;-77
2021/04/12 04:23:00;;;;;;;25.05;14.77;;;4.00;99.90;;;;;;6247069;28;20053;-77
2021/04/12 04:26:19;;;;;;;18.75;11.43;;;4.00;99.90;;;;;;6246895;28;20507;-77
2021/04/12 04:29:48;;;;;;;21.65;14.80;;;4.00;99.90;;;;;;6247324;28;20046;-77
2021/04/12 04:33:33;;;;;;;20.77;12.75;;;4.00;99.90;;;;;;6242102;28;20080;-77
2021/04/12 04:36:54;;;;;;;20.90;14.82;;;4.10;99.90;;;;;;6247453;28;20053;-77
2021/04/12 04:40:32;;;;;;;20.02;12.95;;;4.10;99.90;;;;;;6247754;28;20519;-77
2021/04/12 04:43:46;;;;;;;23.73;15.48;;;4.10;99.90;;;;;;6246953;28;20140;-77
2021/04/12 04:47:31;;;;;;;25.27;15.52;;;4.20;99.90;;;;;;6269164;28;20550;-77
2021/04/12 04:51:06;;;;;;;23.42;14.15;;;4.20;99.90;;;;;;6246832;28;20048;-77
2021/04/12 04:54:50;;;;;;;22.92;15.27;;;4.20;99.90;;;;;;6246266;28;20046;-77
2021/04/12 04:58:00;;;;;;;22.25;14.82;;;4.10;99.90;;;;;;6246156;28;20072;-78
2021/04/12 05:01:28;;;;;;;29.75;16.27;;;4.10;99.90;;;;;;6246298;28;20076;-77
2021/04/12 05:05:03;;;;;;;30.58;16.30;;;3.90;99.90;;;;;;6240896;28;20041;-78
2021/04/12 05:08:34;;;;;;;28.63;15.25;;;3.90;99.90;;;;;;6233185;28;20734;-77
2021/04/12 05:12:14;;;;;;;33.13;16.80;;;3.90;99.90;;;;;;6250688;28;20065;-77
2021/04/12 05:15:59;;;;;;;30.47;17.83;;;4.00;99.90;;;;;;6251834;28;20196;-77
2021/04/12 05:19:34;;;;;;;28.13;18.17;;;4.20;99.90;;;;;;6251396;28;20574;-77
2021/04/12 05:23:00;;;;;;;34.37;18.03;;;4.10;99.90;;;;;;6237441;28;20128;-77
2021/04/12 05:26:37;;;;;;;30.10;15.23;;;4.10;99.90;;;;;;6250559;28;20045;-78
2021/04/12 05:30:15;;;;;;;29.70;16.13;;;4.10;99.90;;;;;;6252668;28;20124;-78
2021/04/12 05:33:32;;;;;;;33.83;16.73;;;4.20;99.90;;;;;;6218982;28;20471;-77
2021/04/12 05:36:57;;;;;;;30.10;17.73;;;4.20;99.90;;;;;;6251087;28;20049;-77
2021/04/12 05:40:19;;;;;;;28.15;16.77;;;4.20;99.90;;;;;;6250857;28;20037;-77
2021/04/12 05:43:40;;;;;;;22.60;15.53;;;4.20;99.90;;;;;;6250590;28;20582;-77
2021/04/12 05:47:06;;;;;;;26.10;15.80;;;4.20;99.90;;;;;;6252852;28;20069;-77
2021/04/12 05:50:46;;;;;;;25.55;16.35;;;4.30;99.90;;;;;;6274421;28;20073;-78
2021/04/12 05:54:15;;;;;;;25.95;16.90;;;4.20;99.90;;;;;;6274623;28;20120;-77
2021/04/12 05:57:51;;;;;;;29.55;17.52;;;4.30;99.90;;;;;;6275135;28;20055;-77
2021/04/12 06:01:13;;;;;;;28.70;17.25;;;4.30;99.90;;;;;;6274353;28;20427;-77
2021/04/12 06:04:28;;;;;;;38.88;19.05;;;4.40;99.90;;;;;;6265702;28;20046;-76
2021/04/12 06:08:02;;;;;;;34.47;18.90;;;4.50;99.90;;;;;;6268373;28;20419;-77
2021/04/12 06:11:38;;;;;;;35.30;18.63;;;4.50;99.90;;;;;;6261844;28;20606;-77
2021/04/12 06:15:08;;;;;;;42.33;18.92;;;4.60;99.90;;;;;;6250297;28;20076;-78
2021/04/12 06:18:49;;;;;;;33.58;19.65;;;4.60;99.90;;;;;;6248239;28;20109;-77
2021/04/12 06:22:21;;;;;;;35.33;20.85;;;4.70;99.90;;;;;;6266886;28;20482;-77
2021/04/12 06:25:56;;;;;;;34.13;20.33;;;4.80;99.90;;;;;;6274046;28;20120;-77
2021/04/12 06:29:23;;;;;;;32.10;18.98;;;5.00;99.90;;;;;;6274802;28;20455;-77
2021/04/12 06:33:06;;;;;;;34.15;20.75;;;5.10;99.90;;;;;;6273894;28;20049;-77
2021/04/12 06:36:31;;;;;;;31.77;19.60;;;5.10;99.90;;;;;;6238110;28;20114;-77
2021/04/12 06:39:48;;;;;;;35.47;20.25;;;5.00;99.90;;;;;;6273929;28;20571;-77
2021/04/12 06:43:34;;;;;;;36.63;19.03;;;5.00;99.90;;;;;;6274486;28;20565;-77
2021/04/12 06:47:08;;;;;;;37.25;22.08;;;5.00;99.90;;;;;;6273816;28;20076;-77
2021/04/12 06:50:33;;;;;;;39.90;20.50;;;5.00;99.90;;;;;;6266327;28;20053;-77
2021/04/12 06:54:08;;;;;;;34.88;21.75;;;5.20;99.90;;;;;;6272620;28;20051;-77
2021/04/12 06:57:57;;;;;;;37.38;20.38;;;5.30;99.90;;;;;;6272862;28;20128;-77
2021/04/12 07:01:39;;;;;;;32.60;18.95;;;5.40;99.90;;;;;;6273204;28;20060;-77
2021/04/12 07:05:17;;;;;;;34.88;20.73;;;5.40;99.90;;;;;;6273471;28;20040;-77
2021/04/12 07:08:26;;;;;;;36.72;21.02;;;5.50;99.90;;;;;;6276280;28;20048;-78
2021/04/12 07:12:00;;;;;;;34.30;18.05;;;5.50;99.90;;;;;;6273376;28;20137;-77
2021/04/12 07:15:55;;;;;;;30.05;19.52;;;5.60;99.90;;;;;;6242623;28;20075;-76
2021/04/12 07:19:45;;;;;;;34.78;19.83;;;5.70;99.90;;;;;;6273818;28;20120;-79
2021/04/12 07:23:11;;;;;;;;;;;5.70;99.90;;;;;;6277478;28;20538;-76
2021/04/12 07:26:35;;;;;;;30.50;19.95;;;5.80;99.90;;;;;;6238586;28;20440;-78
2021/04/12 07:30:12;;;;;;;32.50;19.60;;;5.90;99.90;;;;;;6272456;28;20522;-76
2021/04/12 07:33:55;;;;;;;31.27;20.50;;;6.00;99.90;;;;;;6266066;28;20048;-77
2021/04/12 07:37:37;;;;;;;26.02;18.75;;;6.10;99.90;;;;;;6281584;28;20590;-79
2021/04/12 07:41:17;;;;;;;27.38;19.90;;;6.10;99.90;;;;;;6278056;28;20068;-77
2021/04/12 07:45:01;;;;;;;30.00;19.27;;;6.20;99.90;;;;;;6274277;28;20068;-77
2021/04/12 07:48:37;;;;;;;31.90;19.30;;;6.20;99.90;;;;;;6274301;28;20047;-77
2021/04/12 07:52:07;;;;;;;33.22;19.17;;;6.40;99.90;;;;;;6251375;28;20116;-77
2021/04/12 07:55:29;;;;;;;30.40;22.20;;;6.50;99.90;;;;;;6248698;28;20180;-76
2021/04/12 07:59:18;;;;;;;30.38;19.95;;;6.70;99.90;;;;;;6249119;28;20049;-77
2021/04/12 08:03:02;;;;;;;32.13;19.75;;;6.80;99.90;;;;;;6248124;28;20124;-77
2021/04/12 08:06:50;;;;;;;26.55;18.38;;;6.90;99.90;;;;;;6247760;28;20049;-77
2021/04/12 08:10:40;;;;;;;27.73;18.85;;;7.10;99.90;;;;;;6270994;23;20049;-79
2021/04/12 08:14:23;;;;;;;20.02;14.73;;;7.30;99.90;;;;;;6230347;28;20058;-78
2021/04/12 08:18:01;;;;;;;18.02;14.68;;;7.50;99.90;;;;;;6229971;28;20050;-80
2021/04/12 08:21:55;;;;;;;22.63;16.70;;;7.40;99.90;;;;;;6231475;28;20046;-79
2021/04/12 08:25:25;;;;;;;22.25;16.35;;;7.60;99.90;;;;;;6229631;28;20076;-77
2021/04/12 08:29:02;;;;;;;25.88;18.15;;;7.70;99.90;;;;;;6230896;28;20483;-79
2021/04/12 08:32:56;;;;;;;20.33;14.45;;;7.90;99.90;;;;;;6231889;28;20128;-79
2021/04/12 08:36:43;;;;;;;21.58;13.25;;;8.00;99.90;;;;;;6231987;28;20042;-78
2021/04/12 08:40:20;;;;;;;16.02;13.02;;;8.10;99.90;;;;;;6231385;28;20137;-79
2021/04/12 08:44:07;;;;;;;13.50;11.57;;;8.20;99.90;;;;;;6234966;28;20068;-79
2021/04/12 08:47:28;;;;;;;11.70;9.90;;;8.60;99.90;;;;;;6217015;28;20081;-79
2021/04/12 08:51:04;;;;;;;12.95;9.13;;;8.90;99.90;;;;;;6235344;28;20105;-79
2021/04/12 08:54:18;;;;;;;8.45;7.10;;;8.80;99.90;;;;;;6234089;28;20355;-79
2021/04/12 08:58:05;;;;;;;10.02;6.88;;;8.60;98.10;;;;;;6236171;28;20042;-79
2021/04/12 09:01:32;;;;;;;9.32;6.40;;;8.50;98.50;;;;;;6236309;28;20396;-79
2021/04/12 09:04:59;;;;;;;10.60;6.00;;;8.60;98.30;;;;;;6235584;28;20097;-78
2021/04/12 09:08:41;;;;;;;9.02;6.18;;;8.70;98.00;;;;;;6236166;28;20054;-79
2021/04/12 09:12:27;;;;;;;10.52;5.25;;;9.30;96.80;;;;;;6225338;28;20041;-78
2021/04/12 09:15:46;;;;;;;5.00;3.85;;;9.70;94.30;;;;;;6235209;28;20060;-79
2021/04/12 09:19:23;;;;;;;10.45;4.25;;;9.90;91.30;;;;;;6236377;28;20084;-79
2021/04/12 09:23:02;;;;;;;5.22;4.70;;;10.00;90.70;;;;;;6233944;28;20057;-79
2021/04/12 09:26:39;;;;;;;5.88;3.78;;;10.10;90.20;;;;;;6236785;28;20100;-78
2021/04/12 09:30:02;;;;;;;5.00;3.65;;;10.80;84.50;;;;;;6234020;28;20496;-77
2021/04/12 09:33:42;;;;;;;4.70;3.08;;;11.30;74.60;;;;;;6232849;28;20126;-77
2021/04/12 09:37:25;;;;;;;5.13;4.18;;;11.70;72.80;;;;;;6219984;28;20105;-77
2021/04/12 09:41:01;;;;;;;5.70;2.80;;;11.70;72.00;;;;;;6212213;28;20136;-77
2021/04/12 09:44:48;;;;;;;4.30;3.90;;;11.40;72.10;;;;;;6232785;28;20106;-78
2021/04/12 09:48:11;;;;;;;5.18;3.45;;;11.30;72.90;;;;;;6233790;28;20069;-78
2021/04/12 09:51:44;;;;;;;3.78;3.10;;;11.30;71.00;;;;;;6213528;28;20137;-79
2021/04/12 09:55:13;;;;;;;5.10;3.40;;;11.50;71.40;;;;;;6231255;28;20046;-79
2021/04/12 09:58:48;;;;;;;3.08;2.58;;;11.90;68.40;;;;;;6233877;28;20077;-79
2021/04/12 10:02:23;;;;;;;2.97;2.65;;;11.90;67.80;;;;;;6234651;28;20084;-76
2021/04/12 10:06:18;;;;;;;2.60;2.15;;;11.90;68.70;;;;;;6233817;28;20069;-77
2021/04/12 10:09:35;;;;;;;5.40;3.00;;;11.80;68.50;;;;;;6233247;28;20125;-79
2021/04/12 10:13:16;;;;;;;5.17;2.43;;;11.60;65.70;;;;;;6232236;28;20136;-79
2021/04/12 10:16:22;;;;;;;3.17;2.67;;;11.50;67.00;;;;;;6232365;28;20447;-78
2021/04/12 10:19:32;;;;;;;3.80;2.65;;;11.90;64.20;;;;;;6233014;28;20077;-79
2021/04/12 10:22:50;;;;;;;3.10;2.53;;;12.10;63.30;;;;;;6233137;28;20495;-78
2021/04/12 10:25:59;;;;;;;3.22;2.65;;;12.00;62.80;;;;;;6233066;28;20124;-79
2021/04/12 10:29:08;;;;;;;7.78;2.75;;;11.90;64.10;;;;;;6231731;28;20056;-78
2021/04/12 10:32:15;;;;;;;3.35;2.50;;;11.90;64.20;;;;;;6232541;28;20044;-79
2021/04/12 10:35:22;;;;;;;2.47;2.28;;;11.80;61.10;;;;;;6232421;28;20050;-79
2021/04/12 10:38:27;;;;;;;2.45;1.83;;;11.60;62.30;;;;;;6233248;28;20050;-78
2021/04/12 10:41:33;;;;;;;3.20;1.65;;;11.60;63.60;;;;;;6230691;28;20108;-77
2021/04/12 10:44:38;;;;;;;2.65;2.45;;;11.50;63.70;;;;;;6225668;28;20125;-77
2021/04/12 10:47:57;;;;;;;2.90;2.47;;;11.30;63.00;;;;;;6227132;28;20107;-77
2021/04/12 10:51:12;;;;;;;5.18;2.60;;;11.10;63.80;;;;;;6227062;28;20447;-77
2021/04/12 10:54:40;;;;;;;3.35;2.22;;;11.00;64.60;;;;;;6233799;28;20054;-77
2021/04/12 10:57:51;;;;;;;2.40;2.20;;;10.90;64.70;;;;;;6229166;28;20050;-78
2021/04/12 11:01:03;;;;;;;3.55;3.25;;;10.70;63.90;;;;;;6228634;28;20530;-78
2021/04/12 11:04:37;;;;;;;3.40;1.65;;;10.50;64.70;;;;;;6228925;28;20097;-77
2021/04/12 11:07:48;;;;;;;9.13;2.88;;;10.70;65.10;;;;;;6228454;28;20468;-79
2021/04/12 11:11:05;;;;;;;3.05;1.60;;;11.40;60.10;;;;;;6229296;28;20085;-77
2021/04/12 11:14:17;;;;;;;2.33;1.40;;;12.20;60.30;;;;;;6229004;28;20192;-77
2021/04/12 11:17:29;;;;;;;3.70;1.65;;;12.20;56.70;;;;;;6228855;28;20129;-79
2021/04/12 11:20:42;;;;;;;4.13;1.35;;;12.10;56.80;;;;;;6229507;28;20104;-77
2021/04/12 11:24:08;;;;;;;2.65;1.85;;;11.90;57.00;;;;;;6228809;28;20069;-79
2021/04/12 11:27:57;;;;;;;1.83;1.55;;;11.70;59.20;;;;;;6230874;28;20042;-77
2021/04/12 11:31:04;;;;;;;4.38;1.60;;;11.50;61.00;;;;;;6230020;28;20104;-79
2021/04/12 11:34:13;;;;;;;3.47;1.67;;;11.40;60.80;;;;;;6230042;28;20061;-79
2021/04/12 11:37:21;;;;;;;2.17;1.15;;;11.40;58.80;;;;;;6230553;28;20519;-79
2021/04/12 11:40:27;;;;;;;4.03;2.05;;;11.50;59.60;;;;;;6229684;28;20129;-77
2021/04/12 11:43:31;;;;;;;1.95;1.70;;;11.80;57.30;;;;;;6229637;28;20077;-79
2021/04/12 11:46:48;;;;;;;2.53;1.65;;;11.70;55.60;;;;;;6229276;28;20050;-77
2021/04/12 11:50:19;;;;;;;1.75;1.65;;;11.70;56.40;;;;;;6229084;28;20068;-78
2021/04/12 11:53:35;;;;;;;9.07;8.27;;;12.00;57.30;;;;;;6229003;28;20412;-79
2021/04/12 11:56:47;;;;;;;3.97;3.60;;;12.30;56.50;;;;;;6229747;28;20153;-79
2021/04/12 11:59:56;;;;;;;3.25;1.98;;;12.60;57.20;;;;;;6229210;28;20100;-78
2021/04/12 12:03:13;;;;;;;3.15;1.77;;;12.80;55.60;;;;;;6229737;28;20160;-79
2021/04/12 12:06:28;;;;;;;8.25;5.45;;;12.70;55.90;;;;;;6229389;28;20105;-79
2021/04/12 12:09:42;;;;;;;2.53;1.65;;;12.80;54.60;;;;;;6228311;28;20511;-77
2021/04/12 12:12:54;;;;;;;2.53;1.75;;;12.70;54.60;;;;;;6224390;28;20129;-77
2021/04/12 12:16:11;;;;;;;2.25;1.25;;;12.70;56.00;;;;;;6222424;28;20472;-76
2021/04/12 12:19:23;;;;;;;8.82;8.23;;;12.60;56.90;;;;;;6223440;28;20096;-76
2021/04/12 12:22:34;;;;;;;3.20;1.98;;;12.40;55.90;;;;;;6223392;28;20145;-77
2021/04/12 12:25:42;;;;;;;6.95;2.83;;;12.60;54.30;;;;;;6223288;28;20060;-77
2021/04/12 12:28:51;;;;;;;4.40;1.23;;;12.80;55.40;;;;;;6222375;28;20121;-77
2021/04/12 12:32:03;;;;;;;3.65;1.55;;;13.00;52.90;;;;;;6222182;28;20077;-77
2021/04/12 12:35:25;;;;;;;4.45;2.30;;;12.90;51.20;;;;;;6224339;28;20554;-78
2021/04/12 12:38:49;;;;;;;2.60;1.60;;;12.70;51.70;;;;;;6219126;28;20085;-77
2021/04/12 12:41:51;;;;;;;1.70;1.60;;;12.30;51.20;;;;;;6224269;28;20069;-77
2021/04/12 12:44:55;;;;;;;2.80;1.58;;;12.00;54.90;;;;;;6222983;28;20038;-77
2021/04/12 12:48:00;;;;;;;2.33;1.40;;;11.90;55.90;;;;;;6224406;28;20069;-77
2021/04/12 12:51:09;;;;;;;1.95;1.42;;;12.10;56.40;;;;;;6225570;28;20127;-77
2021/04/12 12:54:16;;;;;;;2.63;1.67;;;12.60;55.00;;;;;;6223581;28;20509;-77
2021/04/12 12:57:22;;;;;;;4.03;1.40;;;12.90;52.00;;;;;;6223391;28;20121;-77
2021/04/12 13:00:35;;;;;;;1.40;1.13;;;12.90;53.00;;;;;;6223546;28;20051;-77
2021/04/12 13:03:39;;;;;;;6.97;4.13;;;12.60;53.20;;;;;;6224116;28;20108;-76
2021/04/12 13:06:41;;;;;;;3.40;1.80;;;12.40;54.50;;;;;;6223201;28;20046;-77
2021/04/12 13:09:54;;;;;;;2.15;1.70;;;12.20;52.80;;;;;;6222637;28;20133;-76
2021/04/12 13:12:57;;;;;;;1.58;1.48;;;12.20;55.00;;;;;;6221895;28;20049;-76
2021/04/12 13:16:11;;;;;;;1.60;1.50;;;12.30;53.20;;;;;;6221795;28;20037;-76
2021/04/12 13:19:14;;;;;;;6.57;2.10;;;12.40;54.60;;;;;;6222720;28;20050;-77
2021/04/12 13:22:21;;;;;;;1.85;1.20;;;12.50;54.50;;;;;;6223039;28;20467;-76
2021/04/12 13:25:30;;;;;;;1.88;1.40;;;12.70;52.60;;;;;;6222762;28;20050;-77
2021/04/12 13:28:37;;;;;;;1.38;1.27;;;12.70;52.60;;;;;;6228108;28;20127;-76
2021/04/12 13:31:46;;;;;;;1.55;1.27;;;12.70;52.00;;;;;;6227980;28;20125;-77
2021/04/12 13:34:51;;;;;;;1.77;1.40;;;12.90;51.40;;;;;;6227847;28;20685;-77
2021/04/12 13:38:03;;;;;;;2.13;1.58;;;12.90;53.00;;;;;;6228187;28;20077;-76
2021/04/12 13:41:09;;;;;;;1.80;1.40;;;12.90;51.30;;;;;;6227306;28;20131;-76
2021/04/12 13:44:13;;;;;;;3.25;1.40;;;12.80;51.90;;;;;;6227931;28;20095;-77
2021/04/12 13:47:24;;;;;;;3.35;1.58;;;12.60;51.30;;;;;;6227543;28;20186;-76
2021/04/12 13:50:29;;;;;;;2.53;1.38;;;12.30;51.30;;;;;;6226836;28;20105;-77
2021/04/12 13:53:38;;;;;;;2.35;1.30;;;12.00;52.40;;;;;;6225714;28;20432;-77
2021/04/12 13:56:45;;;;;;;1.30;1.20;;;11.80;53.30;;;;;;6225416;28;20514;-78
2021/04/12 13:59:51;;;;;;;1.63;1.52;;;11.60;53.60;;;;;;6227491;28;20475;-77
2021/04/12 14:02:57;;;;;;;3.10;1.70;;;11.50;53.30;;;;;;6234395;28;20073;-78
2021/04/12 14:06:04;;;;;;;1.60;1.50;;;11.40;53.90;;;;;;6232177;28;20127;-78
2021/04/12 14:09:10;;;;;;;2.93;1.80;;;11.20;54.80;;;;;;6233656;28;20081;-76
2021/04/12 14:12:20;;;;;;;3.03;1.38;;;11.00;55.30;;;;;;6228484;28;20765;-76
2021/04/12 14:15:34;;;;;;;2.55;1.17;;;10.80;54.90;;;;;;6225711;28;20176;-76
2021/04/12 14:18:41;;;;;;;1.50;1.40;;;10.80;56.00;;;;;;6227330;28;20129;-77
2021/04/12 14:21:46;;;;;;;2.17;1.90;;;10.90;55.30;;;;;;6226483;28;20513;-76
2021/04/12 14:24:51;;;;;;;2.38;1.80;;;11.00;53.50;;;;;;6227546;28;20053;-76
2021/04/12 14:28:05;;;;;;;3.17;2.33;;;11.00;53.70;;;;;;6227054;28;20050;-76
2021/04/12 14:31:09;;;;;;;2.75;1.77;;;10.90;57.10;;;;;;6229443;28;20089;-74
2021/04/12 14:34:20;;;;;;;4.60;1.98;;;10.70;55.90;;;;;;6226680;28;20141;-76
2021/04/12 14:37:27;;;;;;;8.63;2.53;;;10.50;56.70;;;;;;6225009;28;20052;-75
2021/04/12 14:40:32;;;;;;;2.22;1.95;;;10.60;56.60;;;;;;6224407;28;20153;-75
2021/04/12 14:43:36;;;;;;;3.92;1.65;;;10.50;56.40;;;;;;6224527;28;20716;-75
2021/04/12 14:46:45;;;;;;;4.53;2.25;;;10.60;57.10;;;;;;6224473;28;20510;-75
2021/04/12 14:49:51;;;;;;;2.47;1.60;;;10.80;55.00;;;;;;6224461;28;20591;-76
2021/04/12 14:52:56;;;;;;;3.78;1.63;;;10.90;55.10;;;;;;6224187;28;20045;-76
2021/04/12 14:56:04;;;;;;;28.15;20.88;;;11.20;57.10;;;;;;6224141;28;20129;-76
2021/04/12 14:59:07;;;;;;;6.68;3.97;;;11.50;55.00;;;;;;6227004;28;20318;-75
2021/04/12 15:02:23;;;;;;;4.05;3.03;;;11.80;56.10;;;;;;6224192;28;20045;-77
2021/04/12 15:05:37;;;;;;;1.52;1.42;;;12.20;54.50;;;;;;6224288;28;20085;-76
2021/04/12 15:08:41;;;;;;;4.20;1.38;;;12.30;53.00;;;;;;6224451;28;20060;-76
2021/04/12 15:11:47;;;;;;;44.40;31.90;;;12.30;51.60;;;;;;6223499;28;20553;-77
2021/04/12 15:14:56;;;;;;;15.32;10.68;;;12.30;51.40;;;;;;6224730;28;20088;-76
2021/04/12 15:18:11;;;;;;;3.92;3.13;;;12.30;50.70;;;;;;6224763;28;20079;-77
2021/04/12 15:21:21;;;;;;;2.83;2.35;;;12.20;50.10;;;;;;6224722;28;20520;-77
2021/04/12 15:24:26;;;;;;;2.28;1.35;;;12.00;51.00;;;;;;6224146;28;20044;-77
2021/04/12 15:27:28;;;;;;;4.22;1.88;;;11.80;50.40;;;;;;6223991;28;20518;-77
2021/04/12 15:30:35;;;;;;;1.95;1.83;;;11.60;49.80;;;;;;6225221;28;20567;-77
2021/04/12 15:33:45;;;;;;;2.92;1.35;;;11.30;49.40;;;;;;6224323;28;20054;-77
2021/04/12 15:36:49;;;;;;;2.13;1.42;;;11.00;52.50;;;;;;6224872;28;20069;-77
2021/04/12 15:40:02;;;;;;;2.42;1.73;;;10.80;54.20;;;;;;6224525;28;20096;-77
2021/04/12 15:43:15;;;;;;;1.67;1.40;;;10.80;53.60;;;;;;6227818;28;20088;-76
2021/04/12 15:46:21;;;;;;;1.77;1.65;;;10.60;53.20;;;;;;6225609;28;20129;-77
2021/04/12 15:49:26;;;;;;;2.70;1.40;;;10.50;54.50;;;;;;6225947;28;20077;-77
2021/04/12 15:52:34;;;;;;;1.48;1.35;;;10.30;54.80;;;;;;6224183;28;20589;-78
2021/04/12 15:55:38;;;;;;;2.13;1.73;;;10.00;54.50;;;;;;6226679;28;20054;-77
2021/04/12 15:58:45;;;;;;;1.98;1.50;;;9.70;56.60;;;;;;6226011;28;20653;-77
2021/04/12 16:01:50;;;;;;;9.10;1.90;;;9.50;56.90;;;;;;6226404;28;20133;-77
2021/04/12 16:05:02;;;;;;;2.70;2.50;;;9.00;59.00;;;;;;6224683;28;20074;-77
2021/04/12 16:08:08;;;;;;;3.83;1.70;;;8.60;61.10;;;;;;6226515;28;20072;-77
2021/04/12 16:11:16;;;;;;;1.83;1.70;;;8.20;63.20;;;;;;6225959;28;20530;-77
2021/04/12 16:14:24;;;;;;;2.10;2.00;;;7.90;64.00;;;;;;6225557;28;20438;-75
2021/04/12 16:17:31;;;;;;;3.33;2.00;;;7.70;66.20;;;;;;6225634;28;20134;-78
2021/04/12 16:20:37;;;;;;;8.67;3.70;;;7.40;69.40;;;;;;6224312;28;20076;-77
2021/04/12 16:23:48;;;;;;;13.18;6.75;;;7.20;72.60;;;;;;6223606;28;20288;-77
2021/04/12 16:27:04;;;;;;;7.35;4.30;;;7.20;73.90;;;;;;6223528;28;20042;-77
2021/04/12 16:30:10;;;;;;;3.33;1.45;;;7.40;76.70;;;;;;6222897;28;20104;-75
2021/04/12 16:33:16;;;;;;;3.88;2.92;;;7.50;75.20;;;;;;6223188;28;20124;-75
2021/04/12 16:36:23;;;;;;;3.28;2.22;;;7.40;75.00;;;;;;6223006;28;20456;-76
2021/04/12 16:39:34;;;;;;;4.80;4.33;;;7.20;73.30;;;;;;6223202;28;20593;-77
2021/04/12 16:42:37;;;;;;;3.60;3.08;;;7.00;73.60;;;;;;6224314;28;20132;-77
2021/04/12 16:45:42;;;;;;;4.70;2.20;;;7.00;73.40;;;;;;6223313;28;20092;-77
2021/04/12 16:48:48;;;;;;;4.20;2.13;;;6.90;72.90;;;;;;6224158;28;20053;-78
2021/04/12 16:52:01;;;;;;;1.55;1.45;;;6.90;72.20;;;;;;6224184;28;20182;-77
2021/04/12 16:55:12;;;;;;;3.00;2.40;;;7.00;72.80;;;;;;6224688;28;20046;-76
2021/04/12 16:58:18;;;;;;;1.88;1.77;;;7.10;71.70;;;;;;6223936;28;20121;-76
2021/04/12 17:01:29;;;;;;;2.80;2.25;;;7.10;71.10;;;;;;6223646;28;20129;-77
2021/04/12 17:04:38;;;;;;;4.10;2.42;;;7.20;70.70;;;;;;6226421;28;20046;-76
2021/04/12 17:07:44;;;;;;;2.67;1.95;;;7.30;70.70;;;;;;6229921;28;20046;-76
2021/04/12 17:10:55;;;;;;;2.53;2.15;;;7.40;70.00;;;;;;6229799;28;20419;-76
2021/04/12 17:14:07;;;;;;;2.80;1.95;;;7.50;69.80;;;;;;6229272;28;20042;-77
2021/04/12 17:17:16;;;;;;;2.17;1.98;;;7.40;68.40;;;;;;6228466;28;20129;-77